14:36
Airports
History
Links
Donate
Help keep this website running!
PayPal
Bitcoin
This page is community maintained. The information is intended for PC simulator navigation or reference.
Always use approved charts for navigation.
ETSL
LECHFELD
LECHFELD (ETSL)
Graben, Bayern, Germany (86836)
(C)
Lat/Lng:48° 11' 7.8" N / 10° 51' 40.2" E
48.185499 / 10.861168
Elevation:1822'ft / 555mMSL
ID / ICAO:ETSL
Runways:1
Longest:(03-21) 2,446.2m / 8,026ft Concrete
Controlled:Yes
Distance To
Airport ID:
Airport Radio Frequencies
Tower: 122.1, 135.15
Approach: 123.3, 129.02, 138.35, 138.9
Nearby VORs <50NM
Nearby NDBs
METARUpdated 08-22-17 14:20 GMT
Altimeter: 30.12
Visibility: 6.2 statute miles
Wind: 5 knots (340°)
Temp: 21°c 70°f
Humidity: 46.2%

METAR: ETSL 221420Z 34005KT 9999 FEW045 SCT300 21/09 Q1020 BLU+BLU+

(Powered by phpweather)
Runway 03 / 21
Dimensions:2446.2 x 29.9m 8026' x 98'ft
Surface:Concrete
Edge Lights:High intensity
Runway 03 [A]Runway 21 [B]
Heading:028°TH 208°TH
Lat:
Lng:
48° 10' 33.22"N
10° 51' 11.55"E
48° 11' 42.37"N
10° 52' 8.86"E
ALS:MALSMALS
User Notes and Comments
Google Map
Nearby Airports
(C) Landsberg Lech 8.2 NM
ETSA (WX) SSE 165°
(C) Jesenwang 12.2 NM
EDMJ E 93°
(C) MINDELHEIM MATTSIES 16.4 NM
EDMN WSW 251°
(C) Augsburg 16.8 NM
EDMA (WX) N 11°
(U) FURSTENFELDBRUCK 18.7 NM
ETSF (WX) E 85°
(C) Oberpfaffenhofen 20.8 NM
EDMO (WX) ESE 110°
(C) Kaufbeuren 25.1 NM
ED08 SSW 207°
VFR Chart
Flight Planning at SkyVector.com